createdAt,value
2022-10-11T00:03:03.767Z,22.10
2022-10-11T00:08:09.097Z,17.90
2022-10-11T00:13:14.382Z,16.20
2022-10-11T00:18:20.024Z,21.00
2022-10-11T00:23:25.247Z,21.90
2022-10-11T00:28:30.526Z,16.10
2022-10-11T00:33:36.116Z,20.40
2022-10-11T00:38:41.599Z,20.50
2022-10-11T00:43:47.033Z,29.00
2022-10-11T00:48:55.108Z,20.90
2022-10-11T00:54:00.622Z,19.80
2022-10-11T00:59:07.538Z,27.20
2022-10-11T01:04:12.780Z,21.50
2022-10-11T01:09:18.770Z,24.50
2022-10-11T01:14:51.388Z,20.60
2022-10-11T01:20:03.638Z,20.80
2022-10-11T01:25:22.528Z,26.60
2022-10-11T01:30:28.905Z,24.30
2022-10-11T01:35:39.494Z,25.80
2022-10-11T01:40:47.259Z,22.40
2022-10-11T01:45:53.306Z,24.70
2022-10-11T01:50:59.281Z,21.20
2022-10-11T01:56:11.040Z,30.60
2022-10-11T02:06:24.028Z,27.00
2022-10-11T02:11:31.183Z,32.90
2022-10-11T02:16:38.789Z,20.90
2022-10-11T02:21:45.816Z,26.90
2022-10-11T02:26:54.687Z,22.10
2022-10-11T02:32:00.655Z,31.10
2022-10-11T02:37:07.679Z,23.70
2022-10-11T02:42:15.211Z,28.00
2022-10-11T02:47:20.465Z,29.50
2022-10-11T02:52:25.719Z,28.10
2022-10-11T02:57:30.907Z,21.30
2022-10-11T03:02:36.094Z,27.00
2022-10-11T03:07:41.259Z,23.10
2022-10-11T03:12:46.442Z,20.90
2022-10-11T03:17:51.630Z,24.70
2022-10-11T03:22:56.993Z,24.60
2022-10-11T03:28:02.380Z,21.80
2022-10-11T03:33:07.741Z,24.20
2022-10-11T03:38:15.438Z,23.10
2022-10-11T03:43:20.654Z,26.40
2022-10-11T03:48:27.060Z,21.30
2022-10-11T03:53:32.622Z,21.60
2022-10-11T03:58:38.004Z,27.00
2022-10-11T04:03:43.297Z,23.90
2022-10-11T04:08:48.480Z,31.50
2022-10-11T04:13:53.803Z,17.90
2022-10-11T04:18:59.025Z,23.70
2022-10-11T04:24:05.213Z,19.70
2022-10-11T04:29:10.689Z,17.60
2022-10-11T04:34:16.050Z,18.20
2022-10-11T04:39:21.350Z,16.20
2022-10-11T04:44:26.575Z,18.50
2022-10-11T04:49:31.845Z,20.60
2022-10-11T04:54:37.371Z,21.20
2022-10-11T04:59:45.516Z,17.20
2022-10-11T05:04:54.922Z,19.60
2022-10-11T05:10:00.178Z,18.40
2022-10-11T05:15:06.202Z,19.40
2022-10-11T05:20:12.868Z,17.40
2022-10-11T05:25:18.546Z,20.20
2022-10-11T05:30:24.190Z,21.30
2022-10-11T05:35:39.101Z,18.00
2022-10-11T05:40:44.939Z,20.60
2022-10-11T05:45:50.880Z,16.80
2022-10-11T05:51:00.231Z,16.80
2022-10-11T05:56:06.092Z,17.90
2022-10-11T06:01:18.149Z,19.20
2022-10-11T06:11:27.952Z,17.20
2022-10-11T06:16:33.441Z,14.60
2022-10-11T06:21:38.679Z,14.90
2022-10-11T06:26:43.863Z,18.10
2022-10-11T06:31:50.475Z,15.10
2022-10-11T06:36:55.855Z,17.30
2022-10-11T06:42:01.134Z,13.40
2022-10-11T06:47:06.853Z,25.20
2022-10-11T06:52:12.251Z,17.60
2022-10-11T06:57:17.498Z,12.40
2022-10-11T07:02:22.836Z,14.00
2022-10-11T07:07:28.030Z,13.90
2022-10-11T07:12:33.268Z,14.30
2022-10-11T07:17:38.498Z,14.70
2022-10-11T07:22:43.859Z,9.50
2022-10-11T07:27:49.503Z,10.60
2022-10-11T07:32:54.719Z,12.40
2022-10-11T07:37:59.964Z,12.80
2022-10-11T07:43:05.179Z,10.20
2022-10-11T07:48:10.842Z,13.80
2022-10-11T07:53:16.043Z,9.30
2022-10-11T07:58:21.317Z,19.00
2022-10-11T08:03:26.671Z,12.40
2022-10-11T08:08:32.247Z,8.80
2022-10-11T08:13:37.958Z,12.90
2022-10-11T08:18:43.323Z,10.00
2022-10-11T08:23:48.817Z,9.70
2022-10-11T08:28:54.433Z,10.90
2022-10-11T08:33:59.749Z,11.70
2022-10-11T08:39:05.222Z,9.80
2022-10-11T08:44:17.306Z,11.00
2022-10-11T08:49:25.697Z,17.90
2022-10-11T08:54:36.423Z,8.90
2022-10-11T08:59:45.593Z,8.20
2022-10-11T09:04:51.849Z,7.30
2022-10-11T09:10:04.661Z,13.40
2022-10-11T09:15:15.832Z,9.10
2022-10-11T09:20:26.337Z,12.00
2022-10-11T09:25:34.771Z,12.00
2022-10-11T09:30:41.548Z,12.60
2022-10-11T09:35:49.173Z,7.80
2022-10-11T09:41:01.588Z,7.90
2022-10-11T09:46:15.329Z,9.00
2022-10-11T09:51:22.290Z,7.60
2022-10-11T09:56:28.804Z,8.40
2022-10-11T10:01:34.527Z,15.90
2022-10-11T10:06:40.153Z,11.30
2022-10-11T10:11:45.368Z,8.50
2022-10-11T10:16:58.908Z,8.60
2022-10-11T10:22:04.322Z,8.50
2022-10-11T10:27:18.122Z,13.50
2022-10-11T10:32:26.299Z,9.50
2022-10-11T10:37:36.267Z,12.60
2022-10-11T10:42:41.448Z,9.10
2022-10-11T10:47:55.372Z,5.80
2022-10-11T10:53:10.180Z,11.30
2022-10-11T10:58:23.084Z,7.40
2022-10-11T11:03:31.028Z,7.00
2022-10-11T11:08:50.628Z,10.70
2022-10-11T11:13:59.626Z,7.30
2022-10-11T11:19:07.532Z,6.30
2022-10-11T11:24:17.010Z,3.90
2022-10-11T11:29:43.611Z,13.40
2022-10-11T11:34:50.747Z,9.20
2022-10-11T11:39:58.608Z,7.60
2022-10-11T11:45:07.510Z,6.80
2022-10-11T11:50:22.571Z,5.20
2022-10-11T11:55:33.459Z,7.10
2022-10-11T12:00:43.168Z,7.10
2022-10-11T12:06:02.009Z,7.40
2022-10-11T12:11:07.631Z,5.90
2022-10-11T12:16:14.085Z,7.00
2022-10-11T12:21:28.901Z,6.80
2022-10-11T12:26:38.702Z,5.60
2022-10-11T12:31:46.196Z,4.60
2022-10-11T12:36:51.845Z,4.40
2022-10-11T12:42:07.622Z,5.80
2022-10-11T12:47:20.302Z,4.90
2022-10-11T12:52:29.917Z,8.10
2022-10-11T12:57:55.689Z,6.90
2022-10-11T13:03:02.472Z,8.10
2022-10-11T13:08:10.889Z,13.10
2022-10-11T13:13:21.093Z,4.90
2022-10-11T13:18:26.938Z,5.70
2022-10-11T13:23:38.979Z,6.00
2022-10-11T13:28:44.309Z,7.80
2022-10-11T13:33:49.748Z,8.60
2022-10-11T13:38:56.547Z,4.60
2022-10-11T13:44:02.064Z,5.20
2022-10-11T13:49:25.746Z,5.40
2022-10-11T13:54:45.714Z,6.20
2022-10-11T14:04:54.451Z,6.10
2022-10-11T14:09:59.796Z,8.10
2022-10-11T14:15:05.922Z,5.60
2022-10-11T14:20:17.119Z,5.20
2022-10-11T14:25:22.686Z,6.90
2022-10-11T14:30:28.274Z,7.70
2022-10-11T14:35:33.785Z,6.20
2022-10-11T14:40:39.711Z,8.90
2022-10-11T14:45:45.050Z,8.30
2022-10-11T14:50:51.394Z,5.60
2022-10-11T14:55:56.814Z,6.30
2022-10-11T15:01:02.050Z,13.00
2022-10-11T15:06:08.299Z,3.80
2022-10-11T15:11:15.004Z,6.30
2022-10-11T15:16:21.658Z,8.80
2022-10-11T15:21:28.411Z,7.10
2022-10-11T15:26:34.042Z,5.20
2022-10-11T15:31:39.513Z,9.30
2022-10-11T15:36:44.751Z,10.20
2022-10-11T15:41:50.507Z,9.10
2022-10-11T15:46:56.443Z,9.50
2022-10-11T15:52:01.760Z,8.80
2022-10-11T15:57:07.393Z,11.90
2022-10-11T16:02:14.591Z,12.50
2022-10-11T16:07:22.431Z,10.60
2022-10-11T16:12:27.696Z,12.90
2022-10-11T16:17:33.315Z,7.80
2022-10-11T16:22:38.573Z,13.00
2022-10-11T16:27:44.188Z,10.60
2022-10-11T16:32:49.625Z,14.00
2022-10-11T16:37:54.938Z,17.00
2022-10-11T16:43:07.430Z,16.30
2022-10-11T16:48:13.176Z,15.30
2022-10-11T16:53:22.323Z,23.60
2022-10-11T16:58:27.904Z,24.90
2022-10-11T17:03:33.231Z,25.50
2022-10-11T17:08:38.543Z,21.00
2022-10-11T17:13:43.727Z,25.50
2022-10-11T17:18:49.053Z,24.70
2022-10-11T17:23:54.236Z,36.50
2022-10-11T17:29:00.415Z,30.10
2022-10-11T17:34:06.352Z,39.50
2022-10-11T17:39:14.757Z,44.30
2022-10-11T17:44:20.301Z,36.70
2022-10-11T17:49:25.802Z,41.80
2022-10-11T17:54:31.018Z,41.20
2022-10-11T17:59:36.423Z,43.30
2022-10-11T18:04:43.010Z,32.90
2022-10-11T18:09:48.372Z,130.80
2022-10-11T18:14:53.769Z,76.80
2022-10-11T18:19:58.969Z,105.90
2022-10-11T18:25:04.401Z,91.00
2022-10-11T18:30:10.786Z,87.60
2022-10-11T18:35:16.110Z,59.00
2022-10-11T18:40:21.445Z,53.20
2022-10-11T18:45:40.868Z,49.50
2022-10-11T18:50:46.330Z,46.30
2022-10-11T18:55:51.597Z,48.10
2022-10-11T19:01:06.632Z,62.20
2022-10-11T19:06:17.220Z,51.20
2022-10-11T19:11:25.363Z,51.10
2022-10-11T19:16:31.200Z,60.40
2022-10-11T19:21:36.491Z,50.80
2022-10-11T19:26:42.885Z,45.70
2022-10-11T19:31:48.696Z,52.00
2022-10-11T19:36:55.415Z,53.10
2022-10-11T19:42:01.781Z,49.60
2022-10-11T19:47:08.020Z,55.00
2022-10-11T19:52:13.946Z,64.00
2022-10-11T19:57:19.380Z,58.00
2022-10-11T20:02:24.683Z,65.40
2022-10-11T20:07:30.165Z,67.80
2022-10-11T20:12:35.970Z,52.80
2022-10-11T20:17:50.530Z,58.60
2022-10-11T20:22:55.820Z,58.40
2022-10-11T20:28:01.111Z,70.00
2022-10-11T20:33:06.378Z,62.10
2022-10-11T20:38:11.574Z,70.60
2022-10-11T20:43:16.782Z,70.80
2022-10-11T20:48:22.295Z,73.90
2022-10-11T20:53:28.243Z,94.80
2022-10-11T20:58:33.611Z,80.70
2022-10-11T21:03:38.974Z,72.20
2022-10-11T21:08:44.267Z,84.30
2022-10-11T21:13:49.532Z,83.70
2022-10-11T21:18:55.573Z,78.70
2022-10-11T21:24:01.797Z,78.20
2022-10-11T21:29:08.436Z,88.10
2022-10-11T21:34:13.687Z,100.20
2022-10-11T21:39:18.971Z,78.50
2022-10-11T21:44:24.211Z,79.10
2022-10-11T21:49:29.898Z,85.90
2022-10-11T21:54:35.422Z,74.60
2022-10-11T21:59:40.703Z,69.40
2022-10-11T22:04:45.979Z,74.30
2022-10-11T22:09:51.250Z,80.00
2022-10-11T22:14:56.568Z,68.70
2022-10-11T22:20:01.878Z,73.10
2022-10-11T22:25:08.105Z,80.00
2022-10-11T22:30:13.796Z,87.10
2022-10-11T22:35:19.159Z,81.40
2022-10-11T22:40:24.451Z,88.40
2022-10-11T22:45:29.582Z,97.50
2022-10-11T22:50:35.489Z,116.30
2022-10-11T22:55:40.771Z,111.30
2022-10-11T23:00:46.144Z,103.70
2022-10-11T23:05:58.537Z,127.90
2022-10-11T23:16:08.440Z,105.60
2022-10-11T23:21:13.789Z,94.70
2022-10-11T23:26:19.152Z,105.40
2022-10-11T23:31:24.531Z,84.00
2022-10-11T23:36:29.742Z,82.00
2022-10-11T23:41:34.983Z,78.90
2022-10-11T23:46:40.188Z,77.80
2022-10-11T23:51:45.368Z,84.70
2022-10-11T23:56:51.467Z,80.10
